sensor_id;sensor_type;location;lat;lon;timestamp;temperature;humidity
20885;DHT22;10602;48.000;9.654;2023-04-06T00:02:12;0.00;6.00
20885;DHT22;10602;48.000;9.654;2023-04-06T00:04:40;0.00;36.40
20885;DHT22;10602;48.000;9.654;2023-04-06T00:07:07;0.00;25.50
20885;DHT22;10602;48.000;9.654;2023-04-06T00:09:35;0.00;99.90
20885;DHT22;10602;48.000;9.654;2023-04-06T00:12:02;-0.10;99.90
20885;DHT22;10602;48.000;9.654;2023-04-06T00:14:30;-0.20;1.00
20885;DHT22;10602;48.000;9.654;2023-04-06T00:16:57;-0.20;1.00
20885;DHT22;10602;48.000;9.654;2023-04-06T00:19:25;-0.20;99.90
20885;DHT22;10602;48.000;9.654;2023-04-06T00:21:53;-0.30;36.90
20885;DHT22;10602;48.000;9.654;2023-04-06T00:24:20;-0.30;99.90
20885;DHT22;10602;48.000;9.654;2023-04-06T00:26:49;-0.30;99.90
20885;DHT22;10602;48.000;9.654;2023-04-06T00:29:16;-0.20;99.90
20885;DHT22;10602;48.000;9.654;2023-04-06T00:31:45;-0.10;99.90
20885;DHT22;10602;48.000;9.654;2023-04-06T00:34:14;-0.10;33.60
20885;DHT22;10602;48.000;9.654;2023-04-06T00:36:45;0.00;76.60
20885;DHT22;10602;48.000;9.654;2023-04-06T00:39:13;0.00;99.90
20885;DHT22;10602;48.000;9.654;2023-04-06T00:41:46;0.00;99.90
20885;DHT22;10602;48.000;9.654;2023-04-06T00:44:12;0.10;1.00
20885;DHT22;10602;48.000;9.654;2023-04-06T00:46:41;0.10;1.00
20885;DHT22;10602;48.000;9.654;2023-04-06T00:49:09;0.10;1.00
20885;DHT22;10602;48.000;9.654;2023-04-06T00:51:38;0.20;1.00
20885;DHT22;10602;48.000;9.654;2023-04-06T00:54:05;0.20;1.00
20885;DHT22;10602;48.000;9.654;2023-04-06T00:56:35;0.20;1.00
20885;DHT22;10602;48.000;9.654;2023-04-06T00:59:04;0.20;1.00
20885;DHT22;10602;48.000;9.654;2023-04-06T01:01:32;0.10;1.00
20885;DHT22;10602;48.000;9.654;2023-04-06T01:03:59;0.10;1.00
20885;DHT22;10602;48.000;9.654;2023-04-06T01:06:28;0.00;1.00
20885;DHT22;10602;48.000;9.654;2023-04-06T01:08:56;-0.10;99.90
20885;DHT22;10602;48.000;9.654;2023-04-06T01:11:24;-0.10;99.90
20885;DHT22;10602;48.000;9.654;2023-04-06T01:13:53;-0.20;1.00
20885;DHT22;10602;48.000;9.654;2023-04-06T01:16:20;-0.30;99.90
20885;DHT22;10602;48.000;9.654;2023-04-06T01:18:48;-0.40;1.00
20885;DHT22;10602;48.000;9.654;2023-04-06T01:21:16;-0.40;1.00
20885;DHT22;10602;48.000;9.654;2023-04-06T01:23:45;-0.50;1.00
20885;DHT22;10602;48.000;9.654;2023-04-06T01:26:13;-0.50;99.90
20885;DHT22;10602;48.000;9.654;2023-04-06T01:28:41;-0.50;1.00
20885;DHT22;10602;48.000;9.654;2023-04-06T01:31:09;-0.50;1.00
20885;DHT22;10602;48.000;9.654;2023-04-06T01:33:37;-0.50;79.90
20885;DHT22;10602;48.000;9.654;2023-04-06T01:36:04;-0.50;99.90
20885;DHT22;10602;48.000;9.654;2023-04-06T01:38:33;-0.60;1.00
20885;DHT22;10602;48.000;9.654;2023-04-06T01:41:01;-0.60;1.00
20885;DHT22;10602;48.000;9.654;2023-04-06T01:43:29;-0.70;1.00
20885;DHT22;10602;48.000;9.654;2023-04-06T01:45:56;-0.70;47.20
20885;DHT22;10602;48.000;9.654;2023-04-06T01:48:24;-0.80;6.80
20885;DHT22;10602;48.000;9.654;2023-04-06T01:50:51;-0.80;1.00
20885;DHT22;10602;48.000;9.654;2023-04-06T01:53:19;-0.80;1.00
20885;DHT22;10602;48.000;9.654;2023-04-06T01:55:46;-0.80;99.90
20885;DHT22;10602;48.000;9.654;2023-04-06T01:58:14;-0.70;1.00
20885;DHT22;10602;48.000;9.654;2023-04-06T02:00:41;-0.70;1.00
20885;DHT22;10602;48.000;9.654;2023-04-06T02:03:09;-0.70;1.00
20885;DHT22;10602;48.000;9.654;2023-04-06T02:05:36;-0.60;93.40
20885;DHT22;10602;48.000;9.654;2023-04-06T02:08:07;-0.60;1.00
20885;DHT22;10602;48.000;9.654;2023-04-06T02:10:35;-0.60;1.00
20885;DHT22;10602;48.000;9.654;2023-04-06T02:13:02;-0.60;1.00
20885;DHT22;10602;48.000;9.654;2023-04-06T02:15:30;-0.50;99.90
20885;DHT22;10602;48.000;9.654;2023-04-06T02:17:58;-0.50;99.90
20885;DHT22;10602;48.000;9.654;2023-04-06T02:20:26;-0.60;1.00
20885;DHT22;10602;48.000;9.654;2023-04-06T02:22:56;-0.70;1.00
20885;DHT22;10602;48.000;9.654;2023-04-06T02:25:22;-0.70;1.00
20885;DHT22;10602;48.000;9.654;2023-04-06T02:27:50;-0.60;1.00
20885;DHT22;10602;48.000;9.654;2023-04-06T02:30:18;-0.70;1.00
20885;DHT22;10602;48.000;9.654;2023-04-06T02:32:45;-0.70;99.90
20885;DHT22;10602;48.000;9.654;2023-04-06T02:35:13;-0.70;1.00
20885;DHT22;10602;48.000;9.654;2023-04-06T02:37:41;-0.80;1.00
20885;DHT22;10602;48.000;9.654;2023-04-06T02:40:09;-0.90;85.80
20885;DHT22;10602;48.000;9.654;2023-04-06T02:42:36;-0.90;99.90
20885;DHT22;10602;48.000;9.654;2023-04-06T02:45:04;-1.00;99.90
20885;DHT22;10602;48.000;9.654;2023-04-06T02:47:33;-1.10;1.00
20885;DHT22;10602;48.000;9.654;2023-04-06T02:50:00;-1.10;1.00
20885;DHT22;10602;48.000;9.654;2023-04-06T02:52:29;-1.10;1.00
20885;DHT22;10602;48.000;9.654;2023-04-06T02:54:57;-1.20;1.00
20885;DHT22;10602;48.000;9.654;2023-04-06T02:57:24;-1.30;1.00
20885;DHT22;10602;48.000;9.654;2023-04-06T02:59:52;-1.30;1.00
20885;DHT22;10602;48.000;9.654;2023-04-06T03:02:19;-1.30;1.00
20885;DHT22;10602;48.000;9.654;2023-04-06T03:04:47;-1.40;1.00
20885;DHT22;10602;48.000;9.654;2023-04-06T03:07:15;-1.40;1.00
20885;DHT22;10602;48.000;9.654;2023-04-06T03:09:42;-1.40;1.00
20885;DHT22;10602;48.000;9.654;2023-04-06T03:12:11;-1.40;1.00
20885;DHT22;10602;48.000;9.654;2023-04-06T03:14:38;-1.40;1.00
20885;DHT22;10602;48.000;9.654;2023-04-06T03:17:06;-1.40;1.00
20885;DHT22;10602;48.000;9.654;2023-04-06T03:19:33;-1.40;1.00
20885;DHT22;10602;48.000;9.654;2023-04-06T03:22:01;-1.50;1.00
20885;DHT22;10602;48.000;9.654;2023-04-06T03:24:29;-1.50;1.00
20885;DHT22;10602;48.000;9.654;2023-04-06T03:26:56;-1.50;1.00
20885;DHT22;10602;48.000;9.654;2023-04-06T03:29:24;-1.50;1.00
20885;DHT22;10602;48.000;9.654;2023-04-06T03:31:51;-1.50;1.00
20885;DHT22;10602;48.000;9.654;2023-04-06T03:34:19;-1.60;1.00
20885;DHT22;10602;48.000;9.654;2023-04-06T03:36:46;-1.50;1.00
20885;DHT22;10602;48.000;9.654;2023-04-06T03:39:14;-1.60;1.00
20885;DHT22;10602;48.000;9.654;2023-04-06T03:41:41;-1.60;1.00
20885;DHT22;10602;48.000;9.654;2023-04-06T03:44:11;-1.70;1.00
20885;DHT22;10602;48.000;9.654;2023-04-06T03:46:38;-1.70;1.00
20885;DHT22;10602;48.000;9.654;2023-04-06T03:49:05;-1.70;1.00
20885;DHT22;10602;48.000;9.654;2023-04-06T03:51:33;-1.70;1.00
20885;DHT22;10602;48.000;9.654;2023-04-06T03:54:01;-1.80;1.00
20885;DHT22;10602;48.000;9.654;2023-04-06T03:56:28;-1.80;1.00
20885;DHT22;10602;48.000;9.654;2023-04-06T03:58:56;-1.80;1.00
20885;DHT22;10602;48.000;9.654;2023-04-06T04:01:23;-1.90;1.00
20885;DHT22;10602;48.000;9.654;2023-04-06T04:03:51;-1.90;1.00
20885;DHT22;10602;48.000;9.654;2023-04-06T04:06:18;-1.90;1.00
20885;DHT22;10602;48.000;9.654;2023-04-06T04:08:46;-1.90;1.00
20885;DHT22;10602;48.000;9.654;2023-04-06T04:11:13;-2.00;1.00
20885;DHT22;10602;48.000;9.654;2023-04-06T04:13:42;-2.00;1.00
20885;DHT22;10602;48.000;9.654;2023-04-06T04:16:10;-2.00;1.00
20885;DHT22;10602;48.000;9.654;2023-04-06T04:18:37;-2.00;1.00
20885;DHT22;10602;48.000;9.654;2023-04-06T04:21:05;-2.00;1.00
20885;DHT22;10602;48.000;9.654;2023-04-06T04:23:32;-2.00;1.00
20885;DHT22;10602;48.000;9.654;2023-04-06T04:26:00;-2.00;1.00
20885;DHT22;10602;48.000;9.654;2023-04-06T04:28:27;-2.00;1.00
20885;DHT22;10602;48.000;9.654;2023-04-06T04:30:55;-2.00;1.00
20885;DHT22;10602;48.000;9.654;2023-04-06T04:33:23;-2.10;1.00
20885;DHT22;10602;48.000;9.654;2023-04-06T04:35:50;-2.10;1.00
20885;DHT22;10602;48.000;9.654;2023-04-06T04:38:18;-2.10;1.00
20885;DHT22;10602;48.000;9.654;2023-04-06T04:40:46;-2.10;1.00
20885;DHT22;10602;48.000;9.654;2023-04-06T04:43:13;-2.10;1.00
20885;DHT22;10602;48.000;9.654;2023-04-06T04:45:41;-2.10;1.00
20885;DHT22;10602;48.000;9.654;2023-04-06T04:48:08;-2.10;1.00
20885;DHT22;10602;48.000;9.654;2023-04-06T04:50:36;-2.10;1.00
20885;DHT22;10602;48.000;9.654;2023-04-06T04:53:03;-2.10;1.00
20885;DHT22;10602;48.000;9.654;2023-04-06T04:55:34;-2.10;1.00
20885;DHT22;10602;48.000;9.654;2023-04-06T04:58:01;-2.20;1.00
20885;DHT22;10602;48.000;9.654;2023-04-06T05:00:29;-2.20;1.00
20885;DHT22;10602;48.000;9.654;2023-04-06T05:02:57;-2.20;1.00
20885;DHT22;10602;48.000;9.654;2023-04-06T05:05:24;-2.20;1.00
20885;DHT22;10602;48.000;9.654;2023-04-06T05:07:52;-2.20;1.00
20885;DHT22;10602;48.000;9.654;2023-04-06T05:10:19;-2.20;1.00
20885;DHT22;10602;48.000;9.654;2023-04-06T05:12:47;-2.20;1.00
20885;DHT22;10602;48.000;9.654;2023-04-06T05:15:14;-2.20;1.00
20885;DHT22;10602;48.000;9.654;2023-04-06T05:17:42;-2.20;1.00
20885;DHT22;10602;48.000;9.654;2023-04-06T05:20:10;-2.20;1.00
20885;DHT22;10602;48.000;9.654;2023-04-06T05:22:37;-2.20;1.00
20885;DHT22;10602;48.000;9.654;2023-04-06T05:25:05;-2.20;1.00
20885;DHT22;10602;48.000;9.654;2023-04-06T05:27:33;-2.10;1.00
20885;DHT22;10602;48.000;9.654;2023-04-06T05:30:00;-2.10;1.00
20885;DHT22;10602;48.000;9.654;2023-04-06T05:32:28;-2.00;1.00
20885;DHT22;10602;48.000;9.654;2023-04-06T05:34:58;-1.80;1.00
20885;DHT22;10602;48.000;9.654;2023-04-06T05:37:25;-1.60;1.00
20885;DHT22;10602;48.000;9.654;2023-04-06T05:39:59;-1.40;1.00
20885;DHT22;10602;48.000;9.654;2023-04-06T05:42:35;-1.10;1.00
20885;DHT22;10602;48.000;9.654;2023-04-06T05:44:58;-0.80;1.00
20885;DHT22;10602;48.000;9.654;2023-04-06T05:47:26;-0.60;1.00
20885;DHT22;10602;48.000;9.654;2023-04-06T05:49:53;-0.40;1.00
20885;DHT22;10602;48.000;9.654;2023-04-06T05:52:21;-0.20;1.00
20885;DHT22;10602;48.000;9.654;2023-04-06T05:54:49;0.00;99.90
20885;DHT22;10602;48.000;9.654;2023-04-06T05:57:17;0.10;1.00
20885;DHT22;10602;48.000;9.654;2023-04-06T05:59:44;0.20;1.00
20885;DHT22;10602;48.000;9.654;2023-04-06T06:02:12;0.30;1.00
20885;DHT22;10602;48.000;9.654;2023-04-06T06:04:40;0.50;1.00
20885;DHT22;10602;48.000;9.654;2023-04-06T06:07:07;0.70;50.10
20885;DHT22;10602;48.000;9.654;2023-04-06T06:09:35;1.00;1.00
20885;DHT22;10602;48.000;9.654;2023-04-06T06:12:09;1.10;1.00
20885;DHT22;10602;48.000;9.654;2023-04-06T06:14:37;1.10;1.00
20885;DHT22;10602;48.000;9.654;2023-04-06T06:17:05;1.20;99.90
20885;DHT22;10602;48.000;9.654;2023-04-06T06:19:33;1.30;99.90
20885;DHT22;10602;48.000;9.654;2023-04-06T06:22:00;1.50;99.90
20885;DHT22;10602;48.000;9.654;2023-04-06T06:24:31;1.60;1.00
20885;DHT22;10602;48.000;9.654;2023-04-06T06:27:26;1.80;1.00
20885;DHT22;10602;48.000;9.654;2023-04-06T06:30:09;2.10;1.00
20885;DHT22;10602;48.000;9.654;2023-04-06T07:01:04;5.10;1.00
20885;DHT22;10602;48.000;9.654;2023-04-06T07:03:32;5.30;1.00
20885;DHT22;10602;48.000;9.654;2023-04-06T07:06:00;5.40;1.00
20885;DHT22;10602;48.000;9.654;2023-04-06T07:08:28;5.20;1.00
20885;DHT22;10602;48.000;9.654;2023-04-06T07:10:55;5.40;1.00
20885;DHT22;10602;48.000;9.654;2023-04-06T07:13:23;5.70;1.00
20885;DHT22;10602;48.000;9.654;2023-04-06T07:15:53;5.60;1.00
20885;DHT22;10602;48.000;9.654;2023-04-06T07:18:22;5.90;1.00
20885;DHT22;10602;48.000;9.654;2023-04-06T07:20:50;6.00;1.00
20885;DHT22;10602;48.000;9.654;2023-04-06T07:23:18;6.50;1.00
20885;DHT22;10602;48.000;9.654;2023-04-06T07:25:46;7.00;1.00
20885;DHT22;10602;48.000;9.654;2023-04-06T07:28:14;6.80;1.00
20885;DHT22;10602;48.000;9.654;2023-04-06T07:30:42;6.50;1.00
20885;DHT22;10602;48.000;9.654;2023-04-06T07:33:10;6.70;1.00
20885;DHT22;10602;48.000;9.654;2023-04-06T07:35:38;6.80;1.00
20885;DHT22;10602;48.000;9.654;2023-04-06T07:38:05;6.60;1.00
20885;DHT22;10602;48.000;9.654;2023-04-06T07:40:33;6.40;1.00
20885;DHT22;10602;48.000;9.654;2023-04-06T07:43:01;6.60;1.00
20885;DHT22;10602;48.000;9.654;2023-04-06T07:45:28;7.10;1.00
20885;DHT22;10602;48.000;9.654;2023-04-06T07:47:56;7.40;1.00
20885;DHT22;10602;48.000;9.654;2023-04-06T07:50:23;7.30;1.00
20885;DHT22;10602;48.000;9.654;2023-04-06T07:53:05;7.50;1.00
20885;DHT22;10602;48.000;9.654;2023-04-06T07:55:32;7.60;1.00
20885;DHT22;10602;48.000;9.654;2023-04-06T07:58:00;7.30;1.00
20885;DHT22;10602;48.000;9.654;2023-04-06T08:00:27;7.60;1.00
20885;DHT22;10602;48.000;9.654;2023-04-06T08:02:55;7.60;1.00
20885;DHT22;10602;48.000;9.654;2023-04-06T08:05:22;7.80;1.00
20885;DHT22;10602;48.000;9.654;2023-04-06T08:07:51;8.00;1.00
20885;DHT22;10602;48.000;9.654;2023-04-06T08:10:20;7.90;1.00
20885;DHT22;10602;48.000;9.654;2023-04-06T08:12:48;8.30;1.00
20885;DHT22;10602;48.000;9.654;2023-04-06T08:15:15;8.60;1.00
20885;DHT22;10602;48.000;9.654;2023-04-06T08:17:44;9.10;1.00
20885;DHT22;10602;48.000;9.654;2023-04-06T08:20:12;9.80;99.90
20885;DHT22;10602;48.000;9.654;2023-04-06T08:22:39;10.20;99.90
20885;DHT22;10602;48.000;9.654;2023-04-06T08:25:07;10.40;99.90
20885;DHT22;10602;48.000;9.654;2023-04-06T08:27:35;10.60;99.90
20885;DHT22;10602;48.000;9.654;2023-04-06T08:30:02;11.20;99.90
20885;DHT22;10602;48.000;9.654;2023-04-06T08:32:30;11.80;99.90
20885;DHT22;10602;48.000;9.654;2023-04-06T08:34:58;11.90;99.90
20885;DHT22;10602;48.000;9.654;2023-04-06T08:37:25;12.00;99.90
20885;DHT22;10602;48.000;9.654;2023-04-06T08:39:53;11.70;99.90
20885;DHT22;10602;48.000;9.654;2023-04-06T08:42:21;11.60;99.90
20885;DHT22;10602;48.000;9.654;2023-04-06T08:44:52;11.40;99.90
20885;DHT22;10602;48.000;9.654;2023-04-06T08:47:20;11.40;99.90
20885;DHT22;10602;48.000;9.654;2023-04-06T08:49:47;11.50;99.90
20885;DHT22;10602;48.000;9.654;2023-04-06T08:52:19;11.60;99.90
20885;DHT22;10602;48.000;9.654;2023-04-06T08:54:46;12.00;99.90
20885;DHT22;10602;48.000;9.654;2023-04-06T08:57:15;12.40;99.90
20885;DHT22;10602;48.000;9.654;2023-04-06T08:59:46;12.20;99.90
20885;DHT22;10602;48.000;9.654;2023-04-06T09:02:17;12.50;99.90
20885;DHT22;10602;48.000;9.654;2023-04-06T09:04:49;12.60;99.90
20885;DHT22;10602;48.000;9.654;2023-04-06T09:07:18;12.50;99.90
20885;DHT22;10602;48.000;9.654;2023-04-06T09:09:45;12.60;99.90
20885;DHT22;10602;48.000;9.654;2023-04-06T09:12:28;13.40;99.90
20885;DHT22;10602;48.000;9.654;2023-04-06T09:14:56;14.30;99.90
20885;DHT22;10602;48.000;9.654;2023-04-06T09:17:32;14.80;99.90
20885;DHT22;10602;48.000;9.654;2023-04-06T09:20:00;14.10;99.90
20885;DHT22;10602;48.000;9.654;2023-04-06T09:22:39;14.00;99.90
20885;DHT22;10602;48.000;9.654;2023-04-06T09:25:17;13.50;99.90
20885;DHT22;10602;48.000;9.654;2023-04-06T09:27:39;13.90;99.90
20885;DHT22;10602;48.000;9.654;2023-04-06T09:30:08;14.60;99.90
20885;DHT22;10602;48.000;9.654;2023-04-06T09:32:49;15.00;99.90
20885;DHT22;10602;48.000;9.654;2023-04-06T09:35:17;14.60;99.90
20885;DHT22;10602;48.000;9.654;2023-04-06T09:37:49;13.90;99.90
20885;DHT22;10602;48.000;9.654;2023-04-06T09:40:18;14.80;99.90
20885;DHT22;10602;48.000;9.654;2023-04-06T09:42:48;14.80;99.90
20885;DHT22;10602;48.000;9.654;2023-04-06T09:45:20;14.60;99.90
20885;DHT22;10602;48.000;9.654;2023-04-06T09:47:48;14.90;99.90
20885;DHT22;10602;48.000;9.654;2023-04-06T09:50:18;14.70;99.90
20885;DHT22;10602;48.000;9.654;2023-04-06T09:52:49;15.10;99.90
20885;DHT22;10602;48.000;9.654;2023-04-06T09:55:33;15.60;99.90
20885;DHT22;10602;48.000;9.654;2023-04-06T09:57:58;14.70;99.90
20885;DHT22;10602;48.000;9.654;2023-04-06T10:00:44;15.00;99.90
20885;DHT22;10602;48.000;9.654;2023-04-06T10:03:47;16.00;99.90
20885;DHT22;10602;48.000;9.654;2023-04-06T10:08:40;18.40;99.90
20885;DHT22;10602;48.000;9.654;2023-04-06T10:11:12;16.20;99.90
20885;DHT22;10602;48.000;9.654;2023-04-06T10:13:38;14.40;99.90
20885;DHT22;10602;48.000;9.654;2023-04-06T10:16:06;14.10;99.90
20885;DHT22;10602;48.000;9.654;2023-04-06T10:18:35;13.40;99.90
20885;DHT22;10602;48.000;9.654;2023-04-06T10:21:11;12.10;99.90
20885;DHT22;10602;48.000;9.654;2023-04-06T10:23:48;11.20;99.90
20885;DHT22;10602;48.000;9.654;2023-04-06T10:26:19;10.70;99.90
20885;DHT22;10602;48.000;9.654;2023-04-06T10:28:48;11.50;99.90
20885;DHT22;10602;48.000;9.654;2023-04-06T10:31:28;12.70;99.90
20885;DHT22;10602;48.000;9.654;2023-04-06T10:34:02;13.10;99.90
20885;DHT22;10602;48.000;9.654;2023-04-06T10:36:33;13.00;99.90
20885;DHT22;10602;48.000;9.654;2023-04-06T10:39:03;12.60;99.90
20885;DHT22;10602;48.000;9.654;2023-04-06T10:41:35;11.80;99.90
20885;DHT22;10602;48.000;9.654;2023-04-06T10:44:03;11.90;99.90
20885;DHT22;10602;48.000;9.654;2023-04-06T10:46:32;13.20;99.90
20885;DHT22;10602;48.000;9.654;2023-04-06T10:49:10;15.00;99.90
20885;DHT22;10602;48.000;9.654;2023-04-06T10:51:39;15.10;99.90
20885;DHT22;10602;48.000;9.654;2023-04-06T10:54:07;14.60;99.90
20885;DHT22;10602;48.000;9.654;2023-04-06T10:56:37;13.90;99.90
20885;DHT22;10602;48.000;9.654;2023-04-06T10:59:06;14.10;99.90
20885;DHT22;10602;48.000;9.654;2023-04-06T11:01:34;14.60;99.90
20885;DHT22;10602;48.000;9.654;2023-04-06T11:04:02;14.40;99.90
20885;DHT22;10602;48.000;9.654;2023-04-06T11:06:30;13.80;99.90
20885;DHT22;10602;48.000;9.654;2023-04-06T11:08:58;14.50;99.90
20885;DHT22;10602;48.000;9.654;2023-04-06T11:11:27;14.60;99.90
20885;DHT22;10602;48.000;9.654;2023-04-06T11:13:56;15.20;99.90
20885;DHT22;10602;48.000;9.654;2023-04-06T11:16:30;14.80;99.90
20885;DHT22;10602;48.000;9.654;2023-04-06T11:19:04;15.30;99.90
20885;DHT22;10602;48.000;9.654;2023-04-06T11:21:41;16.60;99.90
20885;DHT22;10602;48.000;9.654;2023-04-06T11:24:18;17.30;99.90
20885;DHT22;10602;48.000;9.654;2023-04-06T11:26:58;17.40;99.90
20885;DHT22;10602;48.000;9.654;2023-04-06T11:29:29;17.20;99.90
20885;DHT22;10602;48.000;9.654;2023-04-06T11:32:01;16.70;99.90
20885;DHT22;10602;48.000;9.654;2023-04-06T11:34:30;17.60;99.90
20885;DHT22;10602;48.000;9.654;2023-04-06T11:37:00;18.80;99.90
20885;DHT22;10602;48.000;9.654;2023-04-06T11:39:29;17.30;99.90
20885;DHT22;10602;48.000;9.654;2023-04-06T11:42:01;16.90;99.90
20885;DHT22;10602;48.000;9.654;2023-04-06T11:44:42;16.60;99.90
20885;DHT22;10602;48.000;9.654;2023-04-06T11:47:07;17.20;99.90
20885;DHT22;10602;48.000;9.654;2023-04-06T11:49:37;17.10;99.90
20885;DHT22;10602;48.000;9.654;2023-04-06T11:52:16;17.20;99.90
20885;DHT22;10602;48.000;9.654;2023-04-06T11:54:43;16.70;99.90
20885;DHT22;10602;48.000;9.654;2023-04-06T11:57:11;16.30;99.90
20885;DHT22;10602;48.000;9.654;2023-04-06T11:59:39;17.30;99.90
20885;DHT22;10602;48.000;9.654;2023-04-06T12:02:06;16.50;99.90
20885;DHT22;10602;48.000;9.654;2023-04-06T12:04:34;15.80;99.90
20885;DHT22;10602;48.000;9.654;2023-04-06T12:07:02;15.40;99.90
20885;DHT22;10602;48.000;9.654;2023-04-06T12:09:31;15.00;99.90
20885;DHT22;10602;48.000;9.654;2023-04-06T12:12:06;15.10;99.90
20885;DHT22;10602;48.000;9.654;2023-04-06T12:14:30;15.10;99.90
20885;DHT22;10602;48.000;9.654;2023-04-06T12:16:58;15.50;99.90
20885;DHT22;10602;48.000;9.654;2023-04-06T12:19:25;16.00;99.90
20885;DHT22;10602;48.000;9.654;2023-04-06T12:21:57;16.40;99.90
20885;DHT22;10602;48.000;9.654;2023-04-06T12:24:25;16.90;99.90
20885;DHT22;10602;48.000;9.654;2023-04-06T12:26:53;16.20;99.90
20885;DHT22;10602;48.000;9.654;2023-04-06T12:29:21;15.50;99.90
20885;DHT22;10602;48.000;9.654;2023-04-06T12:31:49;15.70;99.90
20885;DHT22;10602;48.000;9.654;2023-04-06T12:34:17;15.70;99.90
20885;DHT22;10602;48.000;9.654;2023-04-06T12:36:46;15.60;99.90
20885;DHT22;10602;48.000;9.654;2023-04-06T12:39:13;15.90;99.90
20885;DHT22;10602;48.000;9.654;2023-04-06T12:41:42;15.80;99.90
20885;DHT22;10602;48.000;9.654;2023-04-06T12:44:09;16.00;99.90
20885;DHT22;10602;48.000;9.654;2023-04-06T12:46:37;15.80;99.90
20885;DHT22;10602;48.000;9.654;2023-04-06T12:49:05;15.60;99.90
20885;DHT22;10602;48.000;9.654;2023-04-06T12:51:32;15.10;99.90
20885;DHT22;10602;48.000;9.654;2023-04-06T12:54:00;15.00;99.90
20885;DHT22;10602;48.000;9.654;2023-04-06T12:56:28;16.10;99.90
20885;DHT22;10602;48.000;9.654;2023-04-06T12:58:56;17.00;99.90
20885;DHT22;10602;48.000;9.654;2023-04-06T13:01:23;17.40;99.90
20885;DHT22;10602;48.000;9.654;2023-04-06T13:03:52;16.90;99.90
20885;DHT22;10602;48.000;9.654;2023-04-06T13:06:19;16.40;99.90
20885;DHT22;10602;48.000;9.654;2023-04-06T13:08:47;16.00;99.90
20885;DHT22;10602;48.000;9.654;2023-04-06T13:11:16;16.00;99.90
20885;DHT22;10602;48.000;9.654;2023-04-06T13:13:45;16.00;99.90
20885;DHT22;10602;48.000;9.654;2023-04-06T13:16:13;15.80;99.90
20885;DHT22;10602;48.000;9.654;2023-04-06T13:18:41;15.40;99.90
20885;DHT22;10602;48.000;9.654;2023-04-06T13:21:09;15.40;99.90
20885;DHT22;10602;48.000;9.654;2023-04-06T13:23:39;15.40;99.90
20885;DHT22;10602;48.000;9.654;2023-04-06T13:26:07;15.00;99.90
20885;DHT22;10602;48.000;9.654;2023-04-06T13:28:36;14.80;99.90
20885;DHT22;10602;48.000;9.654;2023-04-06T13:31:05;14.50;99.90
20885;DHT22;10602;48.000;9.654;2023-04-06T13:33:33;15.00;99.90
20885;DHT22;10602;48.000;9.654;2023-04-06T13:36:00;15.90;99.90
20885;DHT22;10602;48.000;9.654;2023-04-06T13:38:29;17.00;99.90
20885;DHT22;10602;48.000;9.654;2023-04-06T13:40:57;17.00;99.90
20885;DHT22;10602;48.000;9.654;2023-04-06T13:43:24;16.20;99.90
20885;DHT22;10602;48.000;9.654;2023-04-06T13:45:54;15.20;99.90
20885;DHT22;10602;48.000;9.654;2023-04-06T13:48:22;14.90;99.90
20885;DHT22;10602;48.000;9.654;2023-04-06T13:50:50;15.00;99.90
20885;DHT22;10602;48.000;9.654;2023-04-06T13:53:17;14.70;99.90
20885;DHT22;10602;48.000;9.654;2023-04-06T13:55:57;15.00;99.90
20885;DHT22;10602;48.000;9.654;2023-04-06T13:58:22;15.30;99.90
20885;DHT22;10602;48.000;9.654;2023-04-06T14:00:49;15.80;99.90
20885;DHT22;10602;48.000;9.654;2023-04-06T14:03:17;16.30;99.90
20885;DHT22;10602;48.000;9.654;2023-04-06T14:05:46;16.50;99.90
20885;DHT22;10602;48.000;9.654;2023-04-06T14:08:13;16.40;99.90
20885;DHT22;10602;48.000;9.654;2023-04-06T14:10:41;16.70;99.90
20885;DHT22;10602;48.000;9.654;2023-04-06T14:13:09;16.70;99.90
20885;DHT22;10602;48.000;9.654;2023-04-06T14:15:36;16.30;99.90
20885;DHT22;10602;48.000;9.654;2023-04-06T14:18:04;16.10;99.90
20885;DHT22;10602;48.000;9.654;2023-04-06T14:20:32;15.50;99.90
20885;DHT22;10602;48.000;9.654;2023-04-06T14:23:01;15.70;99.90
20885;DHT22;10602;48.000;9.654;2023-04-06T14:25:29;16.10;99.90
20885;DHT22;10602;48.000;9.654;2023-04-06T14:28:00;15.60;99.90
20885;DHT22;10602;48.000;9.654;2023-04-06T14:30:30;14.60;99.90
20885;DHT22;10602;48.000;9.654;2023-04-06T14:32:58;14.50;99.90
20885;DHT22;10602;48.000;9.654;2023-04-06T14:35:26;14.40;99.90
20885;DHT22;10602;48.000;9.654;2023-04-06T14:37:54;14.90;99.90
20885;DHT22;10602;48.000;9.654;2023-04-06T14:40:24;15.30;99.90
20885;DHT22;10602;48.000;9.654;2023-04-06T14:42:52;15.50;99.90
20885;DHT22;10602;48.000;9.654;2023-04-06T14:45:21;15.40;99.90
20885;DHT22;10602;48.000;9.654;2023-04-06T14:47:49;14.70;99.90
20885;DHT22;10602;48.000;9.654;2023-04-06T14:50:16;13.70;99.90
20885;DHT22;10602;48.000;9.654;2023-04-06T14:52:44;13.00;99.90
20885;DHT22;10602;48.000;9.654;2023-04-06T14:55:13;12.60;99.90
20885;DHT22;10602;48.000;9.654;2023-04-06T14:57:40;12.50;99.90
20885;DHT22;10602;48.000;9.654;2023-04-06T15:00:08;12.40;99.90
20885;DHT22;10602;48.000;9.654;2023-04-06T15:02:36;12.50;99.90
20885;DHT22;10602;48.000;9.654;2023-04-06T15:05:04;12.40;99.90
20885;DHT22;10602;48.000;9.654;2023-04-06T15:07:32;12.30;99.90
20885;DHT22;10602;48.000;9.654;2023-04-06T15:09:59;12.50;99.90
20885;DHT22;10602;48.000;9.654;2023-04-06T15:12:27;12.50;99.90
20885;DHT22;10602;48.000;9.654;2023-04-06T15:14:55;12.60;99.90
20885;DHT22;10602;48.000;9.654;2023-04-06T15:17:23;12.50;99.90
20885;DHT22;10602;48.000;9.654;2023-04-06T15:19:52;12.40;99.90
20885;DHT22;10602;48.000;9.654;2023-04-06T15:22:20;12.30;99.90
20885;DHT22;10602;48.000;9.654;2023-04-06T15:24:48;12.10;99.90
20885;DHT22;10602;48.000;9.654;2023-04-06T15:27:15;12.10;99.90
20885;DHT22;10602;48.000;9.654;2023-04-06T15:29:43;12.00;99.90
20885;DHT22;10602;48.000;9.654;2023-04-06T15:32:11;12.00;99.90
20885;DHT22;10602;48.000;9.654;2023-04-06T15:34:38;11.90;99.90
20885;DHT22;10602;48.000;9.654;2023-04-06T15:37:06;11.80;99.90
20885;DHT22;10602;48.000;9.654;2023-04-06T15:42:03;11.40;95.50
20885;DHT22;10602;48.000;9.654;2023-04-06T15:44:31;11.30;99.90
20885;DHT22;10602;48.000;9.654;2023-04-06T15:49:26;11.20;95.80
20885;DHT22;10602;48.000;9.654;2023-04-06T15:51:53;11.20;99.90
20885;DHT22;10602;48.000;9.654;2023-04-06T15:54:21;11.20;99.90
20885;DHT22;10602;48.000;9.654;2023-04-06T15:56:48;11.00;99.90
20885;DHT22;10602;48.000;9.654;2023-04-06T16:01:45;10.80;99.90
20885;DHT22;10602;48.000;9.654;2023-04-06T16:04:12;10.90;99.90
20885;DHT22;10602;48.000;9.654;2023-04-06T16:06:40;10.80;99.90
20885;DHT22;10602;48.000;9.654;2023-04-06T16:09:08;10.70;99.90
20885;DHT22;10602;48.000;9.654;2023-04-06T16:11:35;10.70;99.90
20885;DHT22;10602;48.000;9.654;2023-04-06T16:14:03;10.70;99.90
20885;DHT22;10602;48.000;9.654;2023-04-06T16:16:30;10.70;99.90
20885;DHT22;10602;48.000;9.654;2023-04-06T16:18:58;10.70;99.90
20885;DHT22;10602;48.000;9.654;2023-04-06T16:21:25;10.70;99.90
20885;DHT22;10602;48.000;9.654;2023-04-06T16:23:54;10.60;99.90
20885;DHT22;10602;48.000;9.654;2023-04-06T16:26:21;10.60;99.90
20885;DHT22;10602;48.000;9.654;2023-04-06T16:28:49;10.50;99.90